createdAt,value
2019-03-18T00:06:13.792Z,5.41
2019-03-18T00:26:25.505Z,5.90
2019-03-18T00:46:24.914Z,7.44
2019-03-18T01:06:34.355Z,8.49
2019-03-18T01:26:43.786Z,9.31
2019-03-18T01:46:53.203Z,9.55
2019-03-18T02:07:02.547Z,11.27
2019-03-18T02:27:12.047Z,8.57
2019-03-18T02:48:24.222Z,11.63
2019-03-18T03:08:23.633Z,10.09
2019-03-18T03:28:33.045Z,9.09
2019-03-18T03:48:42.428Z,9.69
2019-03-18T04:08:54.178Z,9.03
2019-03-18T04:28:53.493Z,8.28
2019-03-18T04:49:02.871Z,9.07
2019-03-18T05:09:12.362Z,8.96
2019-03-18T05:29:24.072Z,11.58
2019-03-18T05:49:23.439Z,10.57
2019-03-18T06:09:32.900Z,11.67
2019-03-18T06:29:42.221Z,11.37
2019-03-18T06:49:51.678Z,10.97
2019-03-18T07:10:01.097Z,16.20
2019-03-18T07:30:12.751Z,18.78
2019-03-18T07:50:12.152Z,12.65
2019-03-18T08:10:21.609Z,13.09
2019-03-18T08:30:30.943Z,15.02
2019-03-18T08:50:40.368Z,17.64
2019-03-18T09:10:52.057Z,16.99
2019-03-18T09:30:53.808Z,20.07
2019-03-18T09:50:55.515Z,20.23
2019-03-18T10:10:55.018Z,27.22
2019-03-18T10:31:04.416Z,21.40
2019-03-18T10:51:13.817Z,19.68
2019-03-18T11:11:23.210Z,17.38
2019-03-18T11:31:33.404Z,12.36
2019-03-18T11:51:32.831Z,10.99
2019-03-18T12:11:42.235Z,7.97
2019-03-18T12:31:56.901Z,8.40
2019-03-18T12:51:56.357Z,7.00
2019-03-18T13:12:05.752Z,5.42
2019-03-18T13:32:15.165Z,4.99
2019-03-18T13:52:24.623Z,3.90
2019-03-18T14:12:37.171Z,3.71
2019-03-18T14:32:35.166Z,4.00
2019-03-18T14:52:44.563Z,4.37
2019-03-18T15:12:56.099Z,2.36
2019-03-18T15:32:57.807Z,2.05
2019-03-18T15:52:59.620Z,2.61
2019-03-18T16:13:11.053Z,1.78
2019-03-18T16:33:00.717Z,2.13
2019-03-18T16:53:10.080Z,2.70
2019-03-18T17:13:19.699Z,3.50
2019-03-18T17:33:29.052Z,4.63
2019-03-18T17:53:41.102Z,4.39
2019-03-18T18:13:40.614Z,4.79
2019-03-18T18:33:50.176Z,5.39
2019-03-18T18:53:59.667Z,5.74
2019-03-18T19:14:07.836Z,5.31
2019-03-18T19:34:24.400Z,5.58
2019-03-18T19:54:24.534Z,6.07
2019-03-18T20:14:34.772Z,7.10
2019-03-18T20:34:34.297Z,5.93
2019-03-18T20:54:45.984Z,6.84
2019-03-18T21:14:48.531Z,7.24
2019-03-18T21:34:48.005Z,7.60
2019-03-18T21:54:57.859Z,7.77
2019-03-18T22:15:07.290Z,7.45
2019-03-18T22:35:19.103Z,8.34
2019-03-18T22:55:18.561Z,9.37
2019-03-18T23:15:27.986Z,10.51
2019-03-18T23:35:37.588Z,9.37
2019-03-18T23:55:47.225Z,9.27
